Time,TemperatureF,DewpointF,PressureIn,WindDirection,WindDirectionDegrees,WindSpeedMPH,WindSpeedGustMPH,Humidity,HourlyPrecipIn,Conditions,Clouds,dailyrainin,SoftwareType,DateUTC
2013-09-04 00:04:00,67.6,61.0,30.05,WNW,296,0.0,-999.0,80,-99.99,,,0.00,weatherlink.com 1.10,2013-09-04 04:04:00,
2013-09-04 00:19:00,67.3,61.0,30.04,WNW,296,0.0,-999.0,80,-99.99,,,0.00,weatherlink.com 1.10,2013-09-04 04:19:00,
2013-09-04 00:34:00,66.8,60.0,30.04,WNW,296,0.0,-999.0,80,-99.99,,,0.00,weatherlink.com 1.10,2013-09-04 04:34:00,
2013-09-04 00:50:00,66.4,60.0,30.05,WNW,296,0.0,-999.0,81,-99.99,,,0.00,weatherlink.com 1.10,2013-09-04 04:50:00,
2013-09-04 01:05:00,66.1,61.0,30.05,WNW,296,0.0,-999.0,82,-99.99,,,0.00,weatherlink.com 1.10,2013-09-04 05:05:00,
2013-09-04 01:20:00,65.9,60.0,30.04,WNW,296,0.0,-999.0,81,-99.99,,,0.00,weatherlink.com 1.10,2013-09-04 05:20:00,
2013-09-04 01:35:00,65.6,60.0,30.05,WNW,296,0.0,-999.0,81,-99.99,,,0.00,weatherlink.com 1.10,2013-09-04 05:35:00,
2013-09-04 01:50:00,65.3,59.0,30.05,WNW,296,0.0,-999.0,81,-99.99,,,0.00,weatherlink.com 1.10,2013-09-04 05:50:00,
2013-09-04 02:05:00,64.9,59.0,30.05,WNW,296,0.0,-999.0,81,-99.99,,,0.00,weatherlink.com 1.10,2013-09-04 06:05:00,
2013-09-04 02:20:00,64.6,59.0,30.05,WNW,296,0.0,-999.0,81,-99.99,,,0.00,weatherlink.com 1.10,2013-09-04 06:20:00,
2013-09-04 02:35:00,64.3,59.0,30.06,WNW,296,0.0,-999.0,82,-99.99,,,0.00,weatherlink.com 1.10,2013-09-04 06:35:00,
2013-09-04 02:50:00,64.1,59.0,30.06,WNW,294,0.0,-999.0,82,-99.99,,,0.00,weatherlink.com 1.10,2013-09-04 06:50:00,
2013-09-04 03:05:00,63.9,59.0,30.05,WNW,294,0.0,-999.0,83,-99.99,,,0.00,weatherlink.com 1.10,2013-09-04 07:05:00,
2013-09-04 03:20:00,63.7,59.0,30.05,WNW,294,0.0,-999.0,83,-99.99,,,0.00,weatherlink.com 1.10,2013-09-04 07:20:00,
2013-09-04 03:36:00,63.4,58.0,30.05,WNW,294,0.0,-999.0,83,-99.99,,,0.00,weatherlink.com 1.10,2013-09-04 07:36:00,
2013-09-04 03:51:00,63.1,58.0,30.05,WNW,294,0.0,-999.0,83,-99.99,,,0.00,weatherlink.com 1.10,2013-09-04 07:51:00,
2013-09-04 04:06:00,62.8,58.0,30.05,WNW,294,0.0,-999.0,83,-99.99,,,0.00,weatherlink.com 1.10,2013-09-04 08:06:00,
2013-09-04 04:21:00,62.5,57.0,30.06,WNW,294,0.0,-999.0,83,-99.99,,,0.00,weatherlink.com 1.10,2013-09-04 08:21:00,
2013-09-04 04:36:00,62.3,57.0,30.06,WNW,294,0.0,-999.0,83,-99.99,,,0.00,weatherlink.com 1.10,2013-09-04 08:36:00,
2013-09-04 04:51:00,62.0,57.0,30.07,WNW,294,0.0,-999.0,83,-99.99,,,0.00,weatherlink.com 1.10,2013-09-04 08:51:00,
2013-09-04 05:06:00,61.7,57.0,30.07,WNW,294,0.0,-999.0,83,-99.99,,,0.00,weatherlink.com 1.10,2013-09-04 09:06:00,
2013-09-04 05:21:00,61.6,56.0,30.07,WNW,294,0.0,-999.0,83,-99.99,,,0.00,weatherlink.com 1.10,2013-09-04 09:21:00,
2013-09-04 05:36:00,61.5,56.0,30.08,WNW,294,0.0,-999.0,83,-99.99,,,0.00,weatherlink.com 1.10,2013-09-04 09:36:00,
2013-09-04 05:51:00,61.3,57.0,30.08,WNW,294,0.0,-999.0,84,-99.99,,,0.00,weatherlink.com 1.10,2013-09-04 09:51:00,
2013-09-04 06:06:00,61.1,56.0,30.08,WNW,294,0.0,-999.0,84,-99.99,,,0.00,weatherlink.com 1.10,2013-09-04 10:06:00,
2013-09-04 06:22:00,60.9,56.0,30.09,WNW,294,0.0,-999.0,84,-99.99,,,0.00,weatherlink.com 1.10,2013-09-04 10:22:00,
2013-09-04 06:37:00,60.7,56.0,30.10,WNW,294,0.0,-999.0,84,-99.99,,,0.00,weatherlink.com 1.10,2013-09-04 10:37:00,
2013-09-04 06:52:00,60.6,56.0,30.11,WNW,294,0.0,-999.0,84,-99.99,,,0.00,weatherlink.com 1.10,2013-09-04 10:52:00,
2013-09-04 07:07:00,60.6,56.0,30.12,WNW,294,0.0,-999.0,84,-99.99,,,0.00,weatherlink.com 1.10,2013-09-04 11:07:00,
2013-09-04 07:22:00,60.6,56.0,30.12,WNW,294,0.0,-999.0,84,-99.99,,,0.00,weatherlink.com 1.10,2013-09-04 11:22:00,
2013-09-04 07:37:00,60.5,56.0,30.12,WNW,294,0.0,-999.0,84,-99.99,,,0.00,weatherlink.com 1.10,2013-09-04 11:37:00,
2013-09-04 07:52:00,60.4,56.0,30.13,WNW,294,0.0,-999.0,84,-99.99,,,0.00,weatherlink.com 1.10,2013-09-04 11:52:00,
2013-09-04 08:07:00,60.5,56.0,30.14,WNW,294,0.0,-999.0,85,-99.99,,,0.00,weatherlink.com 1.10,2013-09-04 12:07:00,
2013-09-04 08:22:00,60.8,56.0,30.14,WNW,294,0.0,-999.0,85,-99.99,,,0.00,weatherlink.com 1.10,2013-09-04 12:22:00,
2013-09-04 08:37:00,61.4,57.0,30.15,WNW,294,0.0,-999.0,85,-99.99,,,0.00,weatherlink.com 1.10,2013-09-04 12:37:00,
2013-09-04 08:52:00,62.1,58.0,30.15,WNW,302,0.0,-999.0,85,-99.99,,,0.00,weatherlink.com 1.10,2013-09-04 12:52:00,
2013-09-04 09:08:00,62.9,58.0,30.16,NW,309,0.0,-999.0,85,-99.99,,,0.00,weatherlink.com 1.10,2013-09-04 13:08:00,
2013-09-04 09:23:00,63.9,59.0,30.16,NW,307,0.0,-999.0,83,-99.99,,,0.00,weatherlink.com 1.10,2013-09-04 13:23:00,
2013-09-04 09:38:00,65.5,60.0,30.16,NW,309,0.0,-999.0,81,-99.99,,,0.00,weatherlink.com 1.10,2013-09-04 13:38:00,
2013-09-04 09:53:00,67.5,60.0,30.17,NW,309,0.0,-999.0,78,-99.99,,,0.00,weatherlink.com 1.10,2013-09-04 13:53:00,
2013-09-04 10:08:00,69.7,61.0,30.17,NW,309,0.0,-999.0,73,-99.99,,,0.00,weatherlink.com 1.10,2013-09-04 14:08:00,
2013-09-04 10:23:00,71.6,61.0,30.17,NW,309,0.0,-999.0,70,-99.99,,,0.00,weatherlink.com 1.10,2013-09-04 14:23:00,
2013-09-04 10:38:00,72.9,61.0,30.17,NW,314,0.0,-999.0,67,-99.99,,,0.00,weatherlink.com 1.10,2013-09-04 14:38:00,
2013-09-04 10:53:00,74.0,61.0,30.17,WSW,240,0.0,-999.0,64,-99.99,,,0.00,weatherlink.com 1.10,2013-09-04 14:53:00,
2013-09-04 11:08:00,75.0,61.0,30.17,East,89,0.0,-999.0,63,-99.99,,,0.00,weatherlink.com 1.10,2013-09-04 15:08:00,
2013-09-04 11:24:00,76.0,61.0,30.17,ENE,75,0.0,-999.0,61,-99.99,,,0.00,weatherlink.com 1.10,2013-09-04 15:24:00,
2013-09-04 11:39:00,76.8,62.0,30.17,NE,44,0.0,-999.0,60,-99.99,,,0.00,weatherlink.com 1.10,2013-09-04 15:39:00,
2013-09-04 11:54:00,75.5,63.0,30.17,NE,43,0.0,-999.0,65,-99.99,,,0.00,weatherlink.com 1.10,2013-09-04 15:54:00,
2013-09-04 12:09:00,76.1,62.0,30.17,SE,130,0.0,-999.0,61,-99.99,,,0.00,weatherlink.com 1.10,2013-09-04 16:09:00,
2013-09-04 12:24:00,76.3,61.0,30.17,ENE,74,0.0,-999.0,60,-99.99,,,0.00,weatherlink.com 1.10,2013-09-04 16:24:00,
2013-09-04 12:39:00,76.6,62.0,30.16,NE,53,0.0,-999.0,61,-99.99,,,0.00,weatherlink.com 1.10,2013-09-04 16:39:00,
2013-09-04 12:54:00,77.4,63.0,30.16,ENE,71,0.0,-999.0,61,-99.99,,,0.00,weatherlink.com 1.10,2013-09-04 16:54:00,
2013-09-04 13:09:00,77.9,63.0,30.16,NE,48,0.0,-999.0,60,-99.99,,,0.00,weatherlink.com 1.10,2013-09-04 17:09:00,
2013-09-04 13:24:00,78.1,63.0,30.16,ENE,57,0.0,-999.0,60,-99.99,,,0.00,weatherlink.com 1.10,2013-09-04 17:24:00,
2013-09-04 13:39:00,78.4,60.0,30.15,NE,34,0.0,-999.0,54,-99.99,,,0.00,weatherlink.com 1.10,2013-09-04 17:39:00,
2013-09-04 13:54:00,76.6,62.0,30.15,NE,34,0.0,-999.0,60,-99.99,,,0.00,weatherlink.com 1.10,2013-09-04 17:54:00,
2013-09-04 14:10:00,77.8,60.0,30.14,North,7,0.0,-999.0,55,-99.99,,,0.00,weatherlink.com 1.10,2013-09-04 18:10:00,
2013-09-04 14:25:00,79.9,62.0,30.14,NE,48,0.0,-999.0,54,-99.99,,,0.00,weatherlink.com 1.10,2013-09-04 18:25:00,
2013-09-04 14:40:00,79.7,64.0,30.14,NE,52,0.0,-999.0,59,-99.99,,,0.00,weatherlink.com 1.10,2013-09-04 18:40:00,
2013-09-04 14:55:00,78.5,61.0,30.13,NNE,18,0.0,-999.0,56,-99.99,,,0.00,weatherlink.com 1.10,2013-09-04 18:55:00,
2013-09-04 15:10:00,78.4,61.0,30.13,WNW,294,0.0,-999.0,55,-99.99,,,0.00,weatherlink.com 1.10,2013-09-04 19:10:00,
2013-09-04 15:25:00,78.2,62.0,30.13,WNW,302,0.0,-999.0,58,-99.99,,,0.00,weatherlink.com 1.10,2013-09-04 19:25:00,
2013-09-04 15:40:00,79.0,61.0,30.12,NW,321,0.0,-999.0,55,-99.99,,,0.00,weatherlink.com 1.10,2013-09-04 19:40:00,
2013-09-04 15:55:00,79.5,61.0,30.12,East,81,0.0,-999.0,53,-99.99,,,0.00,weatherlink.com 1.10,2013-09-04 19:55:00,
2013-09-04 16:10:00,78.3,64.0,30.12,ENE,67,0.0,-999.0,62,-99.99,,,0.00,weatherlink.com 1.10,2013-09-04 20:10:00,
2013-09-04 16:25:00,78.5,64.0,30.11,NNE,17,0.0,-999.0,61,-99.99,,,0.00,weatherlink.com 1.10,2013-09-04 20:25:00,
2013-09-04 16:40:00,78.1,63.0,30.11,NNE,17,0.0,-999.0,60,-99.99,,,0.00,weatherlink.com 1.10,2013-09-04 20:40:00,
2013-09-04 16:55:00,77.4,63.0,30.11,NNE,17,0.0,-999.0,62,-99.99,,,0.00,weatherlink.com 1.10,2013-09-04 20:55:00,
2013-09-04 17:10:00,77.6,63.0,30.11,NNE,17,0.0,-999.0,61,-99.99,,,0.00,weatherlink.com 1.10,2013-09-04 21:10:00,
2013-09-04 17:26:00,77.6,63.0,30.10,NNE,17,0.0,-999.0,61,-99.99,,,0.00,weatherlink.com 1.10,2013-09-04 21:26:00,
2013-09-04 17:41:00,77.5,63.0,30.11,NNE,17,0.0,-999.0,62,-99.99,,,0.00,weatherlink.com 1.10,2013-09-04 21:41:00,
2013-09-04 17:56:00,77.1,64.0,30.11,NNE,17,0.0,-999.0,64,-99.99,,,0.00,weatherlink.com 1.10,2013-09-04 21:56:00,
2013-09-04 18:11:00,76.8,64.0,30.11,NNE,17,0.0,-999.0,65,-99.99,,,0.00,weatherlink.com 1.10,2013-09-04 22:11:00,
2013-09-04 18:26:00,76.4,65.0,30.10,NNE,17,0.0,-999.0,68,-99.99,,,0.00,weatherlink.com 1.10,2013-09-04 22:26:00,
2013-09-04 18:41:00,75.8,65.0,30.10,NNE,17,0.0,-999.0,69,-99.99,,,0.00,weatherlink.com 1.10,2013-09-04 22:41:00,
2013-09-04 18:56:00,75.3,65.0,30.11,NNE,17,0.0,-999.0,71,-99.99,,,0.00,weatherlink.com 1.10,2013-09-04 22:56:00,
2013-09-04 19:11:00,74.8,66.0,30.11,NNE,17,0.0,-999.0,73,-99.99,,,0.00,weatherlink.com 1.10,2013-09-04 23:11:00,
2013-09-04 19:26:00,74.7,66.0,30.11,NNE,17,0.0,-999.0,73,-99.99,,,0.00,weatherlink.com 1.10,2013-09-04 23:26:00,
2013-09-04 19:41:00,74.4,66.0,30.11,NNE,17,0.0,-999.0,74,-99.99,,,0.00,weatherlink.com 1.10,2013-09-04 23:41:00,
2013-09-04 19:56:00,73.8,65.0,30.11,NNE,17,0.0,-999.0,74,-99.99,,,0.00,weatherlink.com 1.10,2013-09-04 23:56:00,
2013-09-04 20:11:00,72.9,65.0,30.11,NNE,17,0.0,-999.0,75,-99.99,,,0.00,weatherlink.com 1.10,2013-09-05 00:11:00,
2013-09-04 20:26:00,72.2,64.0,30.12,NNE,17,0.0,-999.0,76,-99.99,,,0.00,weatherlink.com 1.10,2013-09-05 00:26:00,
2013-09-04 20:42:00,71.7,64.0,30.12,NNE,17,0.0,-999.0,77,-99.99,,,0.00,weatherlink.com 1.10,2013-09-05 00:42:00,
2013-09-04 20:57:00,71.2,64.0,30.13,NNE,17,0.0,-999.0,78,-99.99,,,0.00,weatherlink.com 1.10,2013-09-05 00:57:00,
2013-09-04 21:12:00,70.7,64.0,30.14,NNE,17,0.0,-999.0,79,-99.99,,,0.00,weatherlink.com 1.10,2013-09-05 01:12:00,
2013-09-04 21:27:00,70.1,63.0,30.14,NNE,17,0.0,-999.0,79,-99.99,,,0.00,weatherlink.com 1.10,2013-09-05 01:27:00,
2013-09-04 21:42:00,69.7,63.0,30.15,NNE,17,0.0,-999.0,80,-99.99,,,0.00,weatherlink.com 1.10,2013-09-05 01:42:00,
2013-09-04 21:57:00,69.3,63.0,30.15,NNE,17,0.0,-999.0,80,-99.99,,,0.00,weatherlink.com 1.10,2013-09-05 01:57:00,
2013-09-04 22:12:00,68.9,63.0,30.15,NNE,17,0.0,-999.0,81,-99.99,,,0.00,weatherlink.com 1.10,2013-09-05 02:12:00,
2013-09-04 22:27:00,68.6,63.0,30.16,NNE,17,0.0,-999.0,81,-99.99,,,0.00,weatherlink.com 1.10,2013-09-05 02:27:00,
2013-09-04 22:42:00,68.4,63.0,30.17,NNE,17,0.0,-999.0,82,-99.99,,,0.00,weatherlink.com 1.10,2013-09-05 02:42:00,
2013-09-04 22:57:00,68.0,62.0,30.17,NNE,17,0.0,-999.0,82,-99.99,,,0.00,weatherlink.com 1.10,2013-09-05 02:57:00,
2013-09-04 23:12:00,67.8,62.0,30.17,NNE,17,0.0,-999.0,82,-99.99,,,0.00,weatherlink.com 1.10,2013-09-05 03:12:00,
2013-09-04 23:27:00,67.6,62.0,30.17,NNE,17,0.0,-999.0,83,-99.99,,,0.00,weatherlink.com 1.10,2013-09-05 03:27:00,
2013-09-04 23:42:00,67.4,62.0,30.17,NNE,17,0.0,-999.0,83,-99.99,,,0.00,weatherlink.com 1.10,2013-09-05 03:42:00,
2013-09-04 23:57:00,67.3,62.0,30.17,NNE,17,0.0,-999.0,83,-99.99,,,0.00,weatherlink.com 1.10,2013-09-05 03:57:00,